Time,TemperatureF,DewpointF,PressureIn,WindDirection,WindDirectionDegrees,WindSpeedMPH,WindSpeedGustMPH,Humidity,HourlyPrecipIn,Conditions,Clouds,dailyrainin,SoftwareType,DateUTC
2013-03-09 00:00:00,35.3,28.2,30.12,NNE,20,9.9,21.3,75,0.01,,CLR,0.06,VWS V14.01,2013-03-09 05:00:00,
2013-03-09 00:01:00,35.3,28.2,30.12,NNE,26,4.3,9.9,75,0.01,,CLR,0.06,VWS V14.01,2013-03-09 05:01:00,
2013-03-09 00:06:00,35.4,28.3,30.12,ENE,73,14.2,35.5,75,0.00,,CLR,0.00,VWS V14.01,2013-03-09 05:06:00,
2013-03-09 00:11:00,35.4,28.0,30.12,NNE,25,12.8,19.9,74,0.01,,CLR,0.01,VWS V14.01,2013-03-09 05:11:00,
2013-03-09 00:16:00,35.4,28.0,30.12,NNE,17,5.7,12.8,74,0.01,,CLR,0.01,VWS V14.01,2013-03-09 05:16:00,
2013-03-09 00:21:00,35.4,28.0,30.12,North,3,2.8,19.9,74,0.01,,CLR,0.01,VWS V14.01,2013-03-09 05:21:00,
2013-03-09 00:26:00,35.4,27.6,30.12,NNE,19,8.5,18.5,73,0.01,,CLR,0.01,VWS V14.01,2013-03-09 05:26:00,
2013-03-09 00:31:00,35.1,27.7,30.13,North,358,1.4,5.7,74,0.01,,CLR,0.01,VWS V14.01,2013-03-09 05:31:00,
2013-03-09 00:36:00,34.9,27.5,30.13,NE,35,5.7,8.5,74,0.01,,CLR,0.01,VWS V14.01,2013-03-09 05:36:00,
2013-03-09 00:40:00,34.7,27.6,30.13,NNW,347,5.7,8.5,75,0.01,,CLR,0.01,VWS V14.01,2013-03-09 05:40:00,
2013-03-09 00:45:00,34.8,27.7,30.13,NE,43,5.7,14.2,75,0.01,,CLR,0.01,VWS V14.01,2013-03-09 05:45:00,
2013-03-09 00:50:00,34.9,27.8,30.13,North,3,5.7,9.9,75,0.01,,CLR,0.01,VWS V14.01,2013-03-09 05:50:00,
2013-03-09 00:55:00,34.9,27.8,30.13,NNE,27,4.3,14.2,75,0.01,,CLR,0.01,VWS V14.01,2013-03-09 05:55:00,
2013-03-09 01:00:00,34.8,27.7,30.13,NNW,346,1.4,15.6,75,0.01,,CLR,0.01,VWS V14.01,2013-03-09 06:00:00,
2013-03-09 01:05:00,34.8,27.4,30.14,North,10,4.3,15.6,74,0.01,,CLR,0.01,VWS V14.01,2013-03-09 06:05:00,
2013-03-09 01:10:00,34.7,27.6,30.14,NNE,14,1.4,11.4,75,0.01,,CLR,0.01,VWS V14.01,2013-03-09 06:10:00,
2013-03-09 01:16:00,34.7,27.6,30.13,NNE,28,17.0,27.0,75,0.01,,CLR,0.01,VWS V14.01,2013-03-09 06:16:00,
2013-03-09 01:21:00,34.7,27.3,30.12,NNW,331,5.7,11.4,74,0.01,,CLR,0.01,VWS V14.01,2013-03-09 06:21:00,
2013-03-09 01:25:00,34.9,27.1,30.13,NNE,13,4.3,15.6,73,0.01,,CLR,0.01,VWS V14.01,2013-03-09 06:25:00,
2013-03-09 01:30:00,35.0,27.2,30.12,NNE,23,1.4,5.7,73,0.01,,CLR,0.01,VWS V14.01,2013-03-09 06:30:00,
2013-03-09 01:35:00,34.7,27.3,30.12,NE,41,5.7,8.5,74,0.01,,CLR,0.01,VWS V14.01,2013-03-09 06:35:00,
2013-03-09 01:40:00,34.6,27.2,30.12,NE,35,5.7,11.4,74,0.01,,CLR,0.01,VWS V14.01,2013-03-09 06:40:00,
2013-03-09 01:45:00,34.6,26.9,30.12,North,354,5.7,11.4,73,0.01,,CLR,0.01,VWS V14.01,2013-03-09 06:45:00,
2013-03-09 01:51:00,34.6,27.2,30.13,NNW,338,5.7,15.6,74,0.01,,CLR,0.01,VWS V14.01,2013-03-09 06:51:00,
2013-03-09 01:56:00,34.7,27.0,30.13,North,1,7.1,12.8,73,0.01,,CLR,0.01,VWS V14.01,2013-03-09 06:56:00,
2013-03-09 02:01:00,34.4,27.0,30.12,NNE,28,7.1,14.2,74,0.00,,CLR,0.01,VWS V14.01,2013-03-09 07:01:00,
2013-03-09 02:06:00,34.6,26.5,30.12,NNW,346,12.8,12.8,72,0.00,,CLR,0.01,VWS V14.01,2013-03-09 07:06:00,
2013-03-09 02:11:00,34.4,26.7,30.12,NNE,12,4.3,18.5,73,0.00,,CLR,0.01,VWS V14.01,2013-03-09 07:11:00,
2013-03-09 02:16:00,34.4,26.7,30.12,NNW,330,2.8,7.1,73,0.00,,CLR,0.01,VWS V14.01,2013-03-09 07:16:00,
2013-03-09 02:20:00,34.3,26.6,30.12,NE,39,11.4,11.4,73,0.00,,CLR,0.01,VWS V14.01,2013-03-09 07:20:00,
2013-03-09 02:25:00,34.3,26.6,30.12,North,7,9.9,17.0,73,0.00,,CLR,0.01,VWS V14.01,2013-03-09 07:25:00,
2013-03-09 02:30:00,34.3,26.6,30.12,NNE,32,2.8,17.0,73,0.00,,CLR,0.01,VWS V14.01,2013-03-09 07:30:00,
2013-03-09 02:35:00,34.3,26.6,30.11,NNE,32,5.7,14.2,73,0.00,,CLR,0.01,VWS V14.01,2013-03-09 07:35:00,
2013-03-09 02:40:00,34.3,26.6,30.11,North,6,5.7,17.0,73,0.00,,CLR,0.01,VWS V14.01,2013-03-09 07:40:00,
2013-03-09 02:45:00,34.0,26.6,30.11,NNW,348,4.3,5.7,74,0.00,,CLR,0.01,VWS V14.01,2013-03-09 07:45:00,
2013-03-09 02:50:00,33.7,26.3,30.11,North,356,2.8,7.1,74,0.00,,CLR,0.01,VWS V14.01,2013-03-09 07:50:00,
2013-03-09 02:55:00,33.7,26.3,30.11,North,7,5.7,12.8,74,0.00,,CLR,0.01,VWS V14.01,2013-03-09 07:55:00,
2013-03-09 03:00:00,33.4,26.3,30.11,NE,44,7.1,7.1,75,0.00,,CLR,0.01,VWS V14.01,2013-03-09 08:00:00,
2013-03-09 03:05:00,33.4,26.3,30.11,NNW,343,2.8,9.9,75,0.00,,CLR,0.01,VWS V14.01,2013-03-09 08:05:00,
2013-03-09 03:10:00,33.5,26.4,30.12,NE,38,2.8,8.5,75,0.00,,CLR,0.01,VWS V14.01,2013-03-09 08:10:00,
2013-03-09 03:15:00,33.7,26.3,30.11,North,356,11.4,11.4,74,0.01,,CLR,0.02,VWS V14.01,2013-03-09 08:15:00,
2013-03-09 03:20:00,33.6,26.2,30.11,NNW,329,14.2,22.7,74,0.01,,CLR,0.02,VWS V14.01,2013-03-09 08:20:00,
2013-03-09 03:25:00,33.7,26.3,30.11,NE,35,8.5,19.9,74,0.01,,CLR,0.02,VWS V14.01,2013-03-09 08:25:00,
2013-03-09 03:30:00,33.7,26.3,30.12,NNE,18,19.9,19.9,74,0.01,,CLR,0.02,VWS V14.01,2013-03-09 08:30:00,
2013-03-09 03:35:00,33.7,26.0,30.12,NNE,12,9.9,9.9,73,0.01,,CLR,0.02,VWS V14.01,2013-03-09 08:35:00,
2013-03-09 03:40:00,33.6,26.5,30.12,NE,34,11.4,18.5,75,0.01,,CLR,0.02,VWS V14.01,2013-03-09 08:40:00,
2013-03-09 03:45:00,33.4,26.3,30.12,NE,49,2.8,9.9,75,0.01,,CLR,0.02,VWS V14.01,2013-03-09 08:45:00,
2013-03-09 03:50:00,33.3,26.2,30.12,WNW,299,7.1,9.9,75,0.01,,CLR,0.02,VWS V14.01,2013-03-09 08:50:00,
2013-03-09 03:55:00,33.1,26.0,30.12,NE,49,2.8,7.1,75,0.01,,CLR,0.02,VWS V14.01,2013-03-09 08:55:00,
2013-03-09 04:00:00,33.2,26.1,30.13,NNE,15,7.1,14.2,75,0.01,,CLR,0.02,VWS V14.01,2013-03-09 09:00:00,
2013-03-09 04:05:00,33.1,26.0,30.13,ENE,58,7.1,17.0,75,0.01,,CLR,0.02,VWS V14.01,2013-03-09 09:05:00,
2013-03-09 04:10:00,33.3,26.2,30.13,NE,37,8.5,9.9,75,0.01,,CLR,0.02,VWS V14.01,2013-03-09 09:10:00,
2013-03-09 04:15:00,33.3,25.9,30.13,NNE,20,1.4,21.3,74,0.01,,CLR,0.02,VWS V14.01,2013-03-09 09:15:00,
2013-03-09 04:20:00,33.2,26.1,30.13,NNW,343,4.3,9.9,75,0.01,,CLR,0.02,VWS V14.01,2013-03-09 09:20:00,
2013-03-09 04:25:00,33.3,25.9,30.13,North,353,2.8,24.1,74,0.01,,CLR,0.02,VWS V14.01,2013-03-09 09:25:00,
2013-03-09 04:30:00,33.1,25.7,30.14,NNW,346,2.8,17.0,74,0.01,,CLR,0.02,VWS V14.01,2013-03-09 09:30:00,
2013-03-09 04:35:00,33.0,26.0,30.14,NNW,340,18.5,18.5,75,0.01,,CLR,0.02,VWS V14.01,2013-03-09 09:35:00,
2013-03-09 04:40:00,33.2,25.8,30.14,NW,309,4.3,8.5,74,0.01,,CLR,0.02,VWS V14.01,2013-03-09 09:40:00,
2013-03-09 04:45:00,33.0,26.0,30.14,North,9,4.3,14.2,75,0.01,,CLR,0.02,VWS V14.01,2013-03-09 09:45:00,
2013-03-09 04:50:00,32.9,25.5,30.14,WSW,237,1.4,5.7,74,0.01,,CLR,0.02,VWS V14.01,2013-03-09 09:50:00,
2013-03-09 04:55:00,33.0,25.6,30.14,NNE,19,5.7,8.5,74,0.01,,CLR,0.02,VWS V14.01,2013-03-09 09:55:00,
2013-03-09 05:00:00,32.9,25.5,30.14,NE,46,2.8,9.9,74,0.01,,CLR,0.02,VWS V14.01,2013-03-09 10:00:00,
2013-03-09 05:05:00,33.1,25.4,30.14,North,8,2.8,8.5,73,0.00,,CLR,0.02,VWS V14.01,2013-03-09 10:05:00,
2013-03-09 05:10:00,32.9,25.5,30.14,NNE,24,4.3,14.2,74,0.00,,CLR,0.02,VWS V14.01,2013-03-09 10:10:00,
2013-03-09 05:15:00,33.0,25.3,30.15,North,3,11.4,19.9,73,0.00,,CLR,0.02,VWS V14.01,2013-03-09 10:15:00,
2013-03-09 05:20:00,32.8,25.4,30.15,North,350,2.8,8.5,74,0.00,,CLR,0.02,VWS V14.01,2013-03-09 10:20:00,
2013-03-09 05:25:00,32.9,25.2,30.15,North,359,2.8,8.5,73,0.00,,CLR,0.02,VWS V14.01,2013-03-09 10:25:00,
2013-03-09 05:30:00,33.2,25.5,30.16,North,2,0.0,4.3,73,0.00,,CLR,0.02,VWS V14.01,2013-03-09 10:30:00,
2013-03-09 05:35:00,32.9,25.2,30.16,North,356,4.3,17.0,73,0.00,,CLR,0.02,VWS V14.01,2013-03-09 10:35:00,
2013-03-09 05:40:00,33.0,25.6,30.16,WNW,297,0.0,4.3,74,0.00,,CLR,0.02,VWS V14.01,2013-03-09 10:40:00,
2013-03-09 05:45:00,32.6,25.6,30.17,NE,34,9.9,18.5,75,0.00,,CLR,0.02,VWS V14.01,2013-03-09 10:45:00,
2013-03-09 05:50:00,32.5,25.5,30.17,NNW,346,1.4,11.4,75,0.00,,CLR,0.02,VWS V14.01,2013-03-09 10:50:00,
2013-03-09 05:55:00,32.6,25.2,30.17,NNE,16,7.1,15.6,74,0.00,,CLR,0.02,VWS V14.01,2013-03-09 10:55:00,
2013-03-09 06:00:00,32.6,25.2,30.17,NNE,23,9.9,17.0,74,0.00,,CLR,0.02,VWS V14.01,2013-03-09 11:00:00,
2013-03-09 06:05:00,32.7,25.7,30.17,North,3,4.3,11.4,75,0.00,,CLR,0.02,VWS V14.01,2013-03-09 11:05:00,
2013-03-09 06:10:00,32.8,25.1,30.17,ENE,69,5.7,11.4,73,0.00,,CLR,0.02,VWS V14.01,2013-03-09 11:10:00,
2013-03-09 06:15:00,32.6,25.2,30.17,NW,326,1.4,7.1,74,0.00,,CLR,0.02,VWS V14.01,2013-03-09 11:15:00,
2013-03-09 06:20:00,32.5,25.1,30.18,NE,47,4.3,11.4,74,0.00,,CLR,0.02,VWS V14.01,2013-03-09 11:20:00,
2013-03-09 06:25:00,32.6,24.9,30.17,NW,323,2.8,9.9,73,0.00,,CLR,0.02,VWS V14.01,2013-03-09 11:25:00,
2013-03-09 06:30:00,32.6,24.9,30.18,NNW,340,2.8,12.8,73,0.00,,CLR,0.02,VWS V14.01,2013-03-09 11:30:00,
2013-03-09 06:35:00,32.6,24.9,30.17,NNE,12,7.1,18.5,73,0.00,,CLR,0.02,VWS V14.01,2013-03-09 11:35:00,
2013-03-09 06:40:00,32.6,24.9,30.18,NNE,25,14.2,21.3,73,0.00,,CLR,0.02,VWS V14.01,2013-03-09 11:40:00,
2013-03-09 06:45:00,32.7,25.0,30.18,NNE,18,5.7,7.1,73,0.00,,CLR,0.02,VWS V14.01,2013-03-09 11:45:00,
2013-03-09 06:50:00,32.8,25.1,30.18,NNW,347,5.7,9.9,73,0.00,,CLR,0.02,VWS V14.01,2013-03-09 11:50:00,
2013-03-09 06:55:00,32.8,24.8,30.18,North,359,1.4,4.3,72,0.00,,CLR,0.02,VWS V14.01,2013-03-09 11:55:00,
2013-03-09 07:00:00,32.9,24.9,30.18,North,353,0.0,5.7,72,0.00,,CLR,0.02,VWS V14.01,2013-03-09 12:00:00,
2013-03-09 07:05:00,33.1,25.4,30.18,WNW,300,7.1,7.1,73,0.00,,CLR,0.02,VWS V14.01,2013-03-09 12:05:00,
2013-03-09 07:10:00,33.3,25.3,30.18,North,351,7.1,12.8,72,0.00,,CLR,0.02,VWS V14.01,2013-03-09 12:10:00,
2013-03-09 07:15:00,33.8,25.7,30.19,North,3,2.8,19.9,72,0.00,,CLR,0.02,VWS V14.01,2013-03-09 12:15:00,
2013-03-09 07:20:00,34.0,25.3,30.19,North,351,5.7,12.8,70,0.00,,CLR,0.02,VWS V14.01,2013-03-09 12:20:00,
2013-03-09 07:25:00,34.3,25.5,30.19,NW,308,2.8,4.3,70,0.00,,CLR,0.02,VWS V14.01,2013-03-09 12:25:00,
2013-03-09 07:30:00,34.6,25.5,30.20,NE,37,4.3,7.1,69,0.00,,CLR,0.02,VWS V14.01,2013-03-09 12:30:00,
2013-03-09 07:35:00,34.7,25.6,30.19,NE,43,8.5,8.5,69,0.00,,CLR,0.02,VWS V14.01,2013-03-09 12:35:00,
2013-03-09 07:40:00,34.9,25.4,30.19,ENE,71,9.9,11.4,68,0.00,,CLR,0.02,VWS V14.01,2013-03-09 12:40:00,
2013-03-09 07:45:00,35.1,25.6,30.19,NNW,348,7.1,15.6,68,0.00,,CLR,0.02,VWS V14.01,2013-03-09 12:45:00,
2013-03-09 07:50:00,35.3,25.8,30.19,NNE,24,9.9,9.9,68,0.00,,CLR,0.02,VWS V14.01,2013-03-09 12:50:00,
2013-03-09 07:55:00,35.4,25.9,30.19,WSW,240,5.7,9.9,68,0.00,,CLR,0.02,VWS V14.01,2013-03-09 12:55:00,
2013-03-09 08:00:00,35.7,25.8,30.19,NE,36,0.0,2.8,67,0.00,,CLR,0.02,VWS V14.01,2013-03-09 13:00:00,
2013-03-09 08:05:00,36.0,25.8,30.19,NE,35,1.4,8.5,66,0.01,,CLR,0.03,VWS V14.01,2013-03-09 13:05:00,
2013-03-09 08:10:00,36.1,26.2,30.19,NW,309,4.3,14.2,67,0.01,,CLR,0.03,VWS V14.01,2013-03-09 13:10:00,
2013-03-09 08:15:00,36.3,26.4,30.20,NE,35,2.8,11.4,67,0.01,,CLR,0.03,VWS V14.01,2013-03-09 13:15:00,
2013-03-09 08:20:00,36.6,26.0,30.20,NW,317,0.0,4.3,65,0.02,,CLR,0.04,VWS V14.01,2013-03-09 13:20:00,
2013-03-09 08:25:00,36.8,25.8,30.20,ESE,115,2.8,14.2,64,0.03,,CLR,0.05,VWS V14.01,2013-03-09 13:25:00,
2013-03-09 08:30:00,37.0,26.0,30.20,NW,304,0.0,5.7,64,0.03,,CLR,0.05,VWS V14.01,2013-03-09 13:30:00,
2013-03-09 08:35:00,37.3,26.6,30.20,NE,52,8.5,12.8,65,0.04,,CLR,0.06,VWS V14.01,2013-03-09 13:35:00,
2013-03-09 08:40:00,37.4,26.0,30.20,North,9,5.7,9.9,63,0.05,,CLR,0.07,VWS V14.01,2013-03-09 13:40:00,
2013-03-09 08:45:00,37.7,25.9,30.20,NNW,348,4.3,7.1,62,0.05,,CLR,0.07,VWS V14.01,2013-03-09 13:45:00,
2013-03-09 08:50:00,37.8,25.6,30.20,NE,54,5.7,14.2,61,0.06,,CLR,0.08,VWS V14.01,2013-03-09 13:50:00,
2013-03-09 08:55:00,37.8,26.4,30.20,NNE,32,9.9,11.4,63,0.07,,CLR,0.09,VWS V14.01,2013-03-09 13:55:00,
2013-03-09 09:00:00,38.0,26.1,30.20,NNE,21,1.4,7.1,62,0.07,,CLR,0.09,VWS V14.01,2013-03-09 14:00:00,
2013-03-09 09:05:00,38.3,26.0,30.20,WNW,294,2.8,4.3,61,0.08,,CLR,0.10,VWS V14.01,2013-03-09 14:05:00,
2013-03-09 09:10:00,38.5,25.8,30.21,North,9,7.1,18.5,60,0.08,,CLR,0.10,VWS V14.01,2013-03-09 14:10:00,
2013-03-09 09:15:00,38.7,25.2,30.21,North,357,11.4,19.9,58,0.09,,CLR,0.11,VWS V14.01,2013-03-09 14:15:00,
2013-03-09 09:20:00,38.8,25.7,30.21,North,355,5.7,14.2,59,0.09,,CLR,0.11,VWS V14.01,2013-03-09 14:20:00,
2013-03-09 09:25:00,39.0,25.9,30.20,NNE,28,2.8,8.5,59,0.10,,CLR,0.12,VWS V14.01,2013-03-09 14:25:00,
2013-03-09 09:30:00,39.2,25.7,30.21,NNE,18,4.3,11.4,58,0.11,,CLR,0.13,VWS V14.01,2013-03-09 14:30:00,
2013-03-09 09:35:00,39.5,26.0,30.21,NNW,340,4.3,5.7,58,0.12,,CLR,0.14,VWS V14.01,2013-03-09 14:35:00,
2013-03-09 09:40:00,39.7,25.7,30.21,NNW,341,2.8,14.2,57,0.13,,CLR,0.15,VWS V14.01,2013-03-09 14:40:00,
2013-03-09 09:45:00,39.9,26.8,30.21,NE,45,4.3,7.1,59,0.14,,CLR,0.16,VWS V14.01,2013-03-09 14:45:00,
2013-03-09 09:50:00,40.1,26.5,30.21,North,0,4.3,8.5,58,0.15,,CLR,0.17,VWS V14.01,2013-03-09 14:50:00,
2013-03-09 09:55:00,40.4,26.8,30.21,NE,39,5.7,11.4,58,0.16,,CLR,0.18,VWS V14.01,2013-03-09 14:55:00,
2013-03-09 10:00:00,40.4,25.5,30.21,NE,43,8.5,11.4,55,0.17,,CLR,0.19,VWS V14.01,2013-03-09 15:00:00,
2013-03-09 10:05:00,40.5,26.5,30.21,NNE,20,5.7,8.5,57,0.11,,CLR,0.20,VWS V14.01,2013-03-09 15:05:00,
2013-03-09 10:10:00,40.7,26.2,30.21,NE,56,1.4,8.5,56,0.12,,CLR,0.21,VWS V14.01,2013-03-09 15:10:00,
2013-03-09 10:15:00,40.9,26.4,30.21,NE,48,1.4,15.6,56,0.13,,CLR,0.22,VWS V14.01,2013-03-09 15:15:00,
2013-03-09 10:20:00,41.2,25.8,30.21,NE,53,8.5,14.2,54,0.14,,CLR,0.23,VWS V14.01,2013-03-09 15:20:00,
2013-03-09 10:25:00,41.4,26.0,30.21,NNE,20,12.8,12.8,54,0.15,,CLR,0.24,VWS V14.01,2013-03-09 15:25:00,
2013-03-09 10:30:00,41.8,25.9,30.21,NNE,25,8.5,9.9,53,0.16,,CLR,0.25,VWS V14.01,2013-03-09 15:30:00,
2013-03-09 10:35:00,41.9,26.9,30.21,NE,46,4.3,9.9,55,0.17,,CLR,0.26,VWS V14.01,2013-03-09 15:35:00,
2013-03-09 10:40:00,42.2,26.8,30.22,North,358,4.3,5.7,54,0.19,,CLR,0.28,VWS V14.01,2013-03-09 15:40:00,
2013-03-09 10:45:00,42.2,26.3,30.22,NE,38,2.8,9.9,53,0.20,,CLR,0.29,VWS V14.01,2013-03-09 15:45:00,
2013-03-09 10:50:00,42.5,26.1,30.21,NE,36,5.7,12.8,52,0.21,,CLR,0.30,VWS V14.01,2013-03-09 15:50:00,
2013-03-09 10:55:00,42.6,25.8,30.22,NNE,17,0.0,2.8,51,0.22,,CLR,0.31,VWS V14.01,2013-03-09 15:55:00,
2013-03-09 11:00:00,43.1,26.7,30.22,NE,34,5.7,17.0,52,0.23,,CLR,0.32,VWS V14.01,2013-03-09 16:00:00,
2013-03-09 11:05:00,42.8,26.4,30.22,North,2,4.3,5.7,52,0.14,,CLR,0.33,VWS V14.01,2013-03-09 16:05:00,
2013-03-09 11:10:00,43.2,26.3,30.22,NNE,16,1.4,4.3,51,0.15,,CLR,0.34,VWS V14.01,2013-03-09 16:10:00,
2013-03-09 11:15:00,43.5,26.1,30.22,North,358,2.8,7.1,50,0.16,,CLR,0.35,VWS V14.01,2013-03-09 16:15:00,
2013-03-09 11:20:00,43.8,25.9,30.22,NNE,24,4.3,8.5,49,0.17,,CLR,0.36,VWS V14.01,2013-03-09 16:20:00,
2013-03-09 11:25:00,44.0,26.1,30.22,NNE,22,5.7,11.4,49,0.18,,CLR,0.37,VWS V14.01,2013-03-09 16:25:00,
2013-03-09 11:30:00,44.1,25.2,30.22,NNW,340,1.4,4.3,47,0.19,,CLR,0.38,VWS V14.01,2013-03-09 16:30:00,
2013-03-09 11:35:00,44.3,26.4,30.22,NNW,343,4.3,7.1,49,0.20,,CLR,0.39,VWS V14.01,2013-03-09 16:35:00,
2013-03-09 11:40:00,44.8,25.8,30.22,NE,41,7.1,8.5,47,0.21,,CLR,0.40,VWS V14.01,2013-03-09 16:40:00,
2013-03-09 11:45:00,44.6,26.1,30.22,NNE,24,14.2,14.2,48,0.22,,CLR,0.41,VWS V14.01,2013-03-09 16:45:00,
2013-03-09 11:50:00,44.5,26.0,30.22,North,351,7.1,7.1,48,0.23,,CLR,0.42,VWS V14.01,2013-03-09 16:50:00,
2013-03-09 11:55:00,44.9,25.4,30.22,North,355,0.0,8.5,46,0.24,,CLR,0.43,VWS V14.01,2013-03-09 16:55:00,
2013-03-09 12:00:00,45.3,25.8,30.22,SE,140,7.1,8.5,46,0.11,,CLR,0.43,VWS V14.01,2013-03-09 17:00:00,
2013-03-09 12:05:00,45.1,25.6,30.22,NNW,337,5.7,11.4,46,0.12,,CLR,0.44,VWS V14.01,2013-03-09 17:05:00,
2013-03-09 12:10:00,45.3,25.8,30.22,NE,40,0.0,7.1,46,0.13,,CLR,0.45,VWS V14.01,2013-03-09 17:10:00,
2013-03-09 12:15:00,45.7,25.6,30.21,North,8,4.3,9.9,45,0.13,,CLR,0.45,VWS V14.01,2013-03-09 17:15:00,
2013-03-09 12:20:00,45.8,25.7,30.21,North,10,5.7,11.4,45,0.14,,CLR,0.46,VWS V14.01,2013-03-09 17:20:00,
2013-03-09 12:25:00,46.0,25.3,30.21,North,352,5.7,12.8,44,0.14,,CLR,0.46,VWS V14.01,2013-03-09 17:25:00,
2013-03-09 12:30:00,46.1,26.0,30.21,NE,37,12.8,12.8,45,0.15,,CLR,0.47,VWS V14.01,2013-03-09 17:30:00,
2013-03-09 12:35:00,46.3,26.7,30.21,North,8,8.5,11.4,46,0.15,,CLR,0.47,VWS V14.01,2013-03-09 17:35:00,
2013-03-09 12:40:00,46.6,28.0,30.21,South,186,0.0,1.4,48,0.16,,CLR,0.48,VWS V14.01,2013-03-09 17:40:00,
2013-03-09 12:45:00,46.7,27.0,30.21,NNE,17,7.1,8.5,46,0.16,,CLR,0.48,VWS V14.01,2013-03-09 17:45:00,
2013-03-09 12:50:00,46.7,27.6,30.21,NNW,327,1.4,9.9,47,0.17,,CLR,0.49,VWS V14.01,2013-03-09 17:50:00,
2013-03-09 12:55:00,46.8,27.1,30.20,North,357,2.8,5.7,46,0.17,,CLR,0.49,VWS V14.01,2013-03-09 17:55:00,
2013-03-09 13:00:00,46.9,27.2,30.20,NE,38,9.9,9.9,46,0.07,,CLR,0.50,VWS V14.01,2013-03-09 18:00:00,
2013-03-09 13:05:00,46.8,26.6,30.20,North,358,9.9,9.9,45,0.07,,CLR,0.50,VWS V14.01,2013-03-09 18:05:00,
2013-03-09 13:10:00,47.0,27.3,30.20,WNW,298,4.3,12.8,46,0.08,,CLR,0.51,VWS V14.01,2013-03-09 18:10:00,
2013-03-09 13:15:00,47.6,27.3,30.20,NNE,16,4.3,4.3,45,0.08,,CLR,0.51,VWS V14.01,2013-03-09 18:15:00,
2013-03-09 13:20:00,47.4,26.0,30.20,NNE,21,4.3,12.8,43,0.08,,CLR,0.51,VWS V14.01,2013-03-09 18:20:00,
2013-03-09 13:25:00,47.4,27.1,30.20,North,6,1.4,2.8,45,0.09,,CLR,0.52,VWS V14.01,2013-03-09 18:25:00,
2013-03-09 13:30:00,47.7,26.9,30.20,NNE,21,4.3,7.1,44,0.09,,CLR,0.52,VWS V14.01,2013-03-09 18:30:00,
2013-03-09 13:35:00,47.8,27.0,30.20,North,7,9.9,9.9,44,0.09,,CLR,0.52,VWS V14.01,2013-03-09 18:35:00,
2013-03-09 13:40:00,48.3,27.4,30.20,West,267,5.7,5.7,44,0.10,,CLR,0.53,VWS V14.01,2013-03-09 18:40:00,
2013-03-09 13:45:00,48.2,26.8,30.20,North,358,2.8,2.8,43,0.10,,CLR,0.53,VWS V14.01,2013-03-09 18:45:00,
2013-03-09 13:50:00,48.2,26.2,30.20,ENE,78,1.4,4.3,42,0.10,,CLR,0.53,VWS V14.01,2013-03-09 18:50:00,
2013-03-09 13:55:00,48.2,26.2,30.20,North,7,7.1,12.8,42,0.10,,CLR,0.53,VWS V14.01,2013-03-09 18:55:00,
2013-03-09 14:00:00,48.3,25.7,30.20,NNE,13,4.3,11.4,41,0.11,,CLR,0.54,VWS V14.01,2013-03-09 19:00:00,
2013-03-09 14:05:00,48.3,25.1,30.20,NE,35,8.5,19.9,40,0.04,,CLR,0.54,VWS V14.01,2013-03-09 19:05:00,
2013-03-09 14:10:00,48.5,25.9,30.20,NNE,12,4.3,8.5,41,0.04,,CLR,0.54,VWS V14.01,2013-03-09 19:10:00,
2013-03-09 14:15:00,48.7,26.1,30.20,ENE,58,1.4,4.3,41,0.04,,CLR,0.54,VWS V14.01,2013-03-09 19:15:00,
2013-03-09 14:20:00,49.0,26.3,30.19,NE,52,0.0,5.7,41,0.04,,CLR,0.54,VWS V14.01,2013-03-09 19:20:00,
2013-03-09 14:25:00,49.3,27.2,30.19,North,2,1.4,5.7,42,0.04,,CLR,0.54,VWS V14.01,2013-03-09 19:25:00,
2013-03-09 14:30:00,49.3,26.0,30.19,NNW,331,8.5,12.8,40,0.04,,CLR,0.54,VWS V14.01,2013-03-09 19:30:00,
2013-03-09 14:35:00,49.6,26.3,30.19,North,10,0.0,0.0,40,0.04,,CLR,0.54,VWS V14.01,2013-03-09 19:35:00,
2013-03-09 14:40:00,49.9,26.6,30.19,West,275,0.0,1.4,40,0.04,,CLR,0.54,VWS V14.01,2013-03-09 19:40:00,
2013-03-09 14:45:00,50.2,28.0,30.19,NNE,20,1.4,7.1,42,0.04,,CLR,0.54,VWS V14.01,2013-03-09 19:45:00,
2013-03-09 14:50:00,50.2,25.0,30.19,North,353,2.8,11.4,37,0.04,,CLR,0.54,VWS V14.01,2013-03-09 19:50:00,
2013-03-09 14:55:00,50.4,26.4,30.19,NNW,336,1.4,4.3,39,0.04,,CLR,0.54,VWS V14.01,2013-03-09 19:55:00,
2013-03-09 15:00:00,50.7,24.7,30.20,NNW,328,5.7,8.5,36,0.04,,CLR,0.54,VWS V14.01,2013-03-09 20:00:00,
2013-03-09 15:05:00,50.8,27.4,30.19,North,11,0.0,2.8,40,0.00,,CLR,0.54,VWS V14.01,2013-03-09 20:05:00,
2013-03-09 15:10:00,51.1,27.0,30.20,NNW,332,0.0,2.8,39,0.00,,CLR,0.54,VWS V14.01,2013-03-09 20:10:00,
2013-03-09 15:15:00,50.9,25.6,30.20,WNW,292,1.4,5.7,37,0.00,,CLR,0.54,VWS V14.01,2013-03-09 20:15:00,
2013-03-09 15:20:00,50.8,26.8,30.20,NNW,348,2.8,8.5,39,0.00,,CLR,0.54,VWS V14.01,2013-03-09 20:20:00,
2013-03-09 15:25:00,50.8,25.5,30.20,North,4,1.4,2.8,37,0.00,,CLR,0.54,VWS V14.01,2013-03-09 20:25:00,
2013-03-09 15:30:00,50.8,26.1,30.20,NNW,341,0.0,8.5,38,0.00,,CLR,0.54,VWS V14.01,2013-03-09 20:30:00,
2013-03-09 15:35:00,51.0,25.0,30.20,North,358,0.0,4.3,36,0.00,,CLR,0.54,VWS V14.01,2013-03-09 20:35:00,
2013-03-09 15:40:00,51.4,26.0,30.20,NW,313,1.4,4.3,37,0.00,,CLR,0.54,VWS V14.01,2013-03-09 20:40:00,
2013-03-09 15:45:00,51.5,25.5,30.21,North,358,0.0,4.3,36,0.00,,CLR,0.54,VWS V14.01,2013-03-09 20:45:00,
2013-03-09 15:50:00,51.4,25.4,30.21,ENE,61,1.4,9.9,36,0.00,,CLR,0.54,VWS V14.01,2013-03-09 20:50:00,
2013-03-09 15:55:00,51.4,25.4,30.21,West,280,1.4,7.1,36,0.00,,CLR,0.54,VWS V14.01,2013-03-09 20:55:00,
2013-03-09 16:00:00,51.2,25.8,30.21,North,2,1.4,7.1,37,0.00,,CLR,0.54,VWS V14.01,2013-03-09 21:00:00,
2013-03-09 16:05:00,51.2,25.8,30.22,North,351,0.0,2.8,37,0.00,,CLR,0.54,VWS V14.01,2013-03-09 21:05:00,
2013-03-09 16:10:00,51.2,25.2,30.22,North,359,2.8,4.3,36,0.00,,CLR,0.54,VWS V14.01,2013-03-09 21:10:00,
2013-03-09 16:15:00,50.9,25.6,30.22,NW,314,5.7,7.1,37,0.00,,CLR,0.54,VWS V14.01,2013-03-09 21:15:00,
2013-03-09 16:20:00,50.9,25.6,30.22,North,2,0.0,4.3,37,0.00,,CLR,0.54,VWS V14.01,2013-03-09 21:20:00,
2013-03-09 16:25:00,50.9,24.9,30.22,WNW,291,0.0,2.8,36,0.00,,CLR,0.54,VWS V14.01,2013-03-09 21:25:00,
2013-03-09 16:30:00,51.0,25.0,30.23,NNE,27,5.7,8.5,36,0.00,,CLR,0.54,VWS V14.01,2013-03-09 21:30:00,
2013-03-09 16:35:00,51.1,24.4,30.23,NW,309,0.0,7.1,35,0.00,,CLR,0.54,VWS V14.01,2013-03-09 21:35:00,
2013-03-09 16:40:00,51.2,25.2,30.23,NNW,344,0.0,0.0,36,0.00,,CLR,0.54,VWS V14.01,2013-03-09 21:40:00,
2013-03-09 16:45:00,50.9,24.2,30.23,NNE,13,0.0,0.0,35,0.00,,CLR,0.54,VWS V14.01,2013-03-09 21:45:00,
2013-03-09 16:50:00,50.8,24.8,30.23,North,356,0.0,7.1,36,0.00,,CLR,0.54,VWS V14.01,2013-03-09 21:50:00,
2013-03-09 16:55:00,50.5,25.9,30.23,NW,307,0.0,2.8,38,0.00,,CLR,0.54,VWS V14.01,2013-03-09 21:55:00,
2013-03-09 17:00:00,50.4,24.5,30.23,NW,319,0.0,1.4,36,0.00,,CLR,0.54,VWS V14.01,2013-03-09 22:00:00,
2013-03-09 17:05:00,50.1,24.9,30.23,WSW,249,0.0,0.0,37,0.00,,CLR,0.54,VWS V14.01,2013-03-09 22:05:00,
2013-03-09 17:10:00,49.8,23.9,30.23,NNE,19,4.3,4.3,36,0.00,,CLR,0.54,VWS V14.01,2013-03-09 22:10:00,
2013-03-09 17:15:00,49.3,24.1,30.23,North,351,2.8,4.3,37,0.00,,CLR,0.54,VWS V14.01,2013-03-09 22:15:00,
2013-03-09 17:20:00,49.2,22.7,30.23,NNW,337,1.4,7.1,35,0.00,,CLR,0.54,VWS V14.01,2013-03-09 22:20:00,
2013-03-09 17:25:00,49.2,23.4,30.24,NNW,329,0.0,1.4,36,0.00,,CLR,0.54,VWS V14.01,2013-03-09 22:25:00,
2013-03-09 17:30:00,49.1,23.3,30.24,NNW,330,0.0,2.8,36,0.00,,CLR,0.54,VWS V14.01,2013-03-09 22:30:00,
2013-03-09 17:35:00,48.7,23.6,30.24,NNW,330,0.0,0.0,37,0.00,,CLR,0.54,VWS V14.01,2013-03-09 22:35:00,
2013-03-09 17:40:00,48.4,23.3,30.24,NNW,330,0.0,0.0,37,0.00,,CLR,0.54,VWS V14.01,2013-03-09 22:40:00,
2013-03-09 17:45:00,48.2,23.8,30.24,NNW,330,0.0,0.0,38,0.00,,CLR,0.54,VWS V14.01,2013-03-09 22:45:00,
2013-03-09 17:50:00,48.0,23.0,30.24,NNW,330,0.0,0.0,37,0.00,,CLR,0.54,VWS V14.01,2013-03-09 22:50:00,
2013-03-09 17:55:00,47.6,23.9,30.24,West,271,0.0,1.4,39,0.00,,CLR,0.54,VWS V14.01,2013-03-09 22:55:00,
2013-03-09 18:00:00,46.7,23.7,30.24,SSE,150,0.0,4.3,40,0.00,,CLR,0.54,VWS V14.01,2013-03-09 23:00:00,
2013-03-09 18:05:00,45.7,24.5,30.25,SE,128,0.0,4.3,43,0.00,,CLR,0.54,VWS V14.01,2013-03-09 23:05:00,
2013-03-09 18:10:00,44.6,25.1,30.25,SE,126,0.0,1.4,46,0.00,,CLR,0.54,VWS V14.01,2013-03-09 23:10:00,
2013-03-09 18:15:00,43.8,26.4,30.25,East,100,0.0,0.0,50,0.00,,CLR,0.54,VWS V14.01,2013-03-09 23:15:00,
2013-03-09 18:20:00,42.9,26.5,30.26,ESE,114,0.0,1.4,52,0.00,,CLR,0.54,VWS V14.01,2013-03-09 23:20:00,
2013-03-09 18:25:00,42.2,27.2,30.26,ESE,113,0.0,2.8,55,0.00,,CLR,0.54,VWS V14.01,2013-03-09 23:25:00,
2013-03-09 18:30:00,41.5,27.4,30.26,ESE,120,2.8,5.7,57,0.00,,CLR,0.54,VWS V14.01,2013-03-09 23:30:00,
2013-03-09 18:35:00,40.9,28.5,30.26,ESE,120,2.8,2.8,61,0.00,,CLR,0.54,VWS V14.01,2013-03-09 23:35:00,
2013-03-09 18:40:00,40.4,29.6,30.26,SE,125,0.0,4.3,65,0.00,,CLR,0.54,VWS V14.01,2013-03-09 23:40:00,
2013-03-09 18:45:00,39.8,29.4,30.27,SE,125,0.0,0.0,66,0.00,,CLR,0.54,VWS V14.01,2013-03-09 23:45:00,
2013-03-09 18:50:00,39.4,30.1,30.27,ESE,121,1.4,5.7,69,0.00,,CLR,0.54,VWS V14.01,2013-03-09 23:50:00,
2013-03-09 18:55:00,39.0,30.4,30.27,ESE,121,1.4,1.4,71,0.00,,CLR,0.54,VWS V14.01,2013-03-09 23:55:00,
2013-03-09 19:00:00,38.7,30.5,30.27,ESE,121,0.0,0.0,72,0.00,,CLR,0.54,VWS V14.01,2013-03-10 00:00:00,
2013-03-09 19:05:00,38.4,30.2,30.27,ESE,121,0.0,0.0,72,0.00,,CLR,0.54,VWS V14.01,2013-03-10 00:05:00,
2013-03-09 19:10:00,38.0,30.5,30.27,ESE,121,2.8,2.8,74,0.00,,CLR,0.54,VWS V14.01,2013-03-10 00:10:00,
2013-03-09 19:15:00,37.7,30.5,30.27,ESE,121,0.0,2.8,75,0.00,,CLR,0.54,VWS V14.01,2013-03-10 00:15:00,
2013-03-09 19:20:00,37.4,30.2,30.27,ESE,121,0.0,0.0,75,0.00,,CLR,0.54,VWS V14.01,2013-03-10 00:20:00,
2013-03-09 19:25:00,37.2,30.7,30.28,ESE,121,0.0,0.0,77,0.00,,CLR,0.54,VWS V14.01,2013-03-10 00:25:00,
2013-03-09 19:30:00,36.8,30.0,30.28,ESE,121,0.0,0.0,76,0.00,,CLR,0.54,VWS V14.01,2013-03-10 00:30:00,
2013-03-09 19:35:00,36.6,30.1,30.28,ESE,121,0.0,0.0,77,0.00,,CLR,0.54,VWS V14.01,2013-03-10 00:35:00,
2013-03-09 19:40:00,36.1,29.9,30.28,ESE,121,0.0,0.0,78,0.00,,CLR,0.54,VWS V14.01,2013-03-10 00:40:00,
2013-03-09 19:45:00,36.0,30.4,30.28,ESE,121,0.0,1.4,80,0.00,,CLR,0.54,VWS V14.01,2013-03-10 00:45:00,
2013-03-09 19:50:00,36.0,30.4,30.28,ESE,121,0.0,1.4,80,0.00,,CLR,0.54,VWS V14.01,2013-03-10 00:50:00,
2013-03-09 19:55:00,36.0,30.8,30.29,ESE,120,0.0,0.0,81,0.00,,CLR,0.54,VWS V14.01,2013-03-10 00:55:00,
2013-03-09 20:00:00,35.9,30.6,30.28,ESE,120,0.0,0.0,81,0.00,,CLR,0.54,VWS V14.01,2013-03-10 01:00:00,
2013-03-09 20:05:00,35.7,30.5,30.29,ESE,120,0.0,0.0,81,0.00,,CLR,0.54,VWS V14.01,2013-03-10 01:05:00,
2013-03-09 20:10:00,35.6,31.0,30.29,ESE,120,0.0,1.4,83,0.00,,CLR,0.54,VWS V14.01,2013-03-10 01:10:00,
2013-03-09 20:15:00,35.3,30.7,30.29,ESE,120,0.0,0.0,83,0.00,,CLR,0.54,VWS V14.01,2013-03-10 01:15:00,
2013-03-09 20:20:00,35.0,30.4,30.29,ESE,120,0.0,0.0,83,0.00,,CLR,0.54,VWS V14.01,2013-03-10 01:20:00,
2013-03-09 20:25:00,34.7,30.4,30.29,ESE,120,0.0,1.4,84,0.00,,CLR,0.54,VWS V14.01,2013-03-10 01:25:00,
2013-03-09 20:30:00,34.6,30.9,30.29,ESE,120,0.0,0.0,86,0.00,,CLR,0.54,VWS V14.01,2013-03-10 01:30:00,
2013-03-09 20:35:00,34.5,31.0,30.29,ESE,120,0.0,1.4,87,0.00,,CLR,0.54,VWS V14.01,2013-03-10 01:35:00,
2013-03-09 20:40:00,34.4,30.6,30.29,ESE,120,0.0,2.8,86,0.00,,CLR,0.54,VWS V14.01,2013-03-10 01:40:00,
2013-03-09 20:45:00,34.4,30.9,30.29,ESE,120,0.0,0.0,87,0.00,,CLR,0.54,VWS V14.01,2013-03-10 01:45:00,
2013-03-09 20:50:00,34.4,31.2,30.29,ESE,120,0.0,0.0,88,0.00,,CLR,0.54,VWS V14.01,2013-03-10 01:50:00,
2013-03-09 20:55:00,34.3,30.8,30.29,ESE,120,0.0,0.0,87,0.00,,CLR,0.54,VWS V14.01,2013-03-10 01:55:00,
2013-03-09 21:00:00,33.9,30.7,30.30,ESE,120,0.0,0.0,88,0.00,,CLR,0.54,VWS V14.01,2013-03-10 02:00:00,
2013-03-09 21:05:00,33.9,31.0,30.30,ESE,120,0.0,0.0,89,0.00,,CLR,0.54,VWS V14.01,2013-03-10 02:05:00,
2013-03-09 21:10:00,33.5,30.6,30.31,ESE,120,0.0,0.0,89,0.00,,CLR,0.54,VWS V14.01,2013-03-10 02:10:00,
2013-03-09 21:15:00,33.2,30.6,30.31,ESE,120,0.0,0.0,90,0.00,,CLR,0.54,VWS V14.01,2013-03-10 02:15:00,
2013-03-09 21:20:00,32.8,30.2,30.31,ESE,120,0.0,0.0,90,0.00,,CLR,0.54,VWS V14.01,2013-03-10 02:20:00,
2013-03-09 21:25:00,32.6,30.0,30.31,ESE,120,0.0,0.0,90,0.00,,CLR,0.54,VWS V14.01,2013-03-10 02:25:00,
2013-03-09 21:30:00,32.5,30.2,30.31,ESE,120,0.0,0.0,91,0.00,,CLR,0.54,VWS V14.01,2013-03-10 02:30:00,
2013-03-09 21:35:00,32.2,29.9,30.31,ESE,121,0.0,0.0,91,0.00,,CLR,0.54,VWS V14.01,2013-03-10 02:35:00,
2013-03-09 21:40:00,32.3,30.5,30.31,ESE,120,0.0,0.0,93,0.00,,CLR,0.54,VWS V14.01,2013-03-10 02:40:00,
2013-03-09 21:45:00,32.3,30.5,30.31,ESE,120,0.0,0.0,93,0.00,,CLR,0.54,VWS V14.01,2013-03-10 02:45:00,
2013-03-09 21:50:00,32.3,30.8,30.31,ESE,120,0.0,0.0,94,0.00,,CLR,0.54,VWS V14.01,2013-03-10 02:50:00,
2013-03-09 21:55:00,32.5,31.0,30.30,ESE,120,0.0,0.0,94,0.00,,CLR,0.54,VWS V14.01,2013-03-10 02:55:00,
2013-03-09 22:00:00,32.5,31.0,30.30,ESE,120,0.0,0.0,94,0.00,,CLR,0.54,VWS V14.01,2013-03-10 03:00:00,
2013-03-09 22:05:00,32.3,30.8,30.30,ESE,120,0.0,0.0,94,0.00,,CLR,0.54,VWS V14.01,2013-03-10 03:05:00,
2013-03-09 22:10:00,32.2,30.7,30.30,ESE,120,0.0,0.0,94,0.00,,CLR,0.54,VWS V14.01,2013-03-10 03:10:00,
2013-03-09 22:15:00,31.9,30.6,30.30,ESE,120,0.0,0.0,95,0.00,,CLR,0.54,VWS V14.01,2013-03-10 03:15:00,
2013-03-09 22:20:00,31.9,30.6,30.30,ESE,120,0.0,0.0,95,0.00,,CLR,0.54,VWS V14.01,2013-03-10 03:20:00,
2013-03-09 22:25:00,31.7,30.4,30.30,ESE,120,0.0,0.0,95,0.00,,CLR,0.54,VWS V14.01,2013-03-10 03:25:00,
2013-03-09 22:30:00,32.0,31.2,30.30,ESE,120,0.0,0.0,97,0.00,,CLR,0.54,VWS V14.01,2013-03-10 03:30:00,
2013-03-09 22:35:00,32.3,31.5,30.31,ESE,120,0.0,0.0,97,0.00,,CLR,0.54,VWS V14.01,2013-03-10 03:35:00,
2013-03-09 22:40:00,32.5,31.7,30.31,ESE,120,0.0,0.0,97,0.00,,CLR,0.54,VWS V14.01,2013-03-10 03:40:00,
2013-03-09 22:45:00,32.6,31.8,30.31,ESE,120,0.0,0.0,97,0.00,,CLR,0.54,VWS V14.01,2013-03-10 03:45:00,
2013-03-09 22:50:00,32.7,31.9,30.31,ESE,120,0.0,0.0,97,0.00,,CLR,0.54,VWS V14.01,2013-03-10 03:50:00,
2013-03-09 22:55:00,32.6,31.8,30.31,ESE,120,0.0,0.0,97,0.00,,CLR,0.54,VWS V14.01,2013-03-10 03:55:00,
2013-03-09 23:00:00,32.8,32.0,30.31,ESE,120,0.0,0.0,97,0.00,,CLR,0.54,VWS V14.01,2013-03-10 04:00:00,
2013-03-09 23:05:00,33.0,32.0,30.32,ESE,120,0.0,0.0,96,0.00,,CLR,0.54,VWS V14.01,2013-03-10 04:05:00,
2013-03-09 23:10:00,32.6,31.6,30.32,ESE,120,0.0,0.0,96,0.00,,CLR,0.54,VWS V14.01,2013-03-10 04:10:00,
2013-03-09 23:15:00,31.8,30.5,30.33,ESE,121,0.0,0.0,95,0.00,,CLR,0.54,VWS V14.01,2013-03-10 04:15:00,
2013-03-09 23:20:00,31.3,30.0,30.33,ESE,120,0.0,0.0,95,0.00,,CLR,0.54,VWS V14.01,2013-03-10 04:20:00,
2013-03-09 23:25:00,31.2,30.2,30.33,ESE,121,0.0,0.0,96,0.00,,CLR,0.54,VWS V14.01,2013-03-10 04:25:00,
2013-03-09 23:30:00,31.3,30.5,30.33,ESE,120,0.0,2.8,97,0.00,,CLR,0.54,VWS V14.01,2013-03-10 04:30:00,
2013-03-09 23:35:00,31.2,30.5,30.33,ESE,121,0.0,0.0,97,0.00,,CLR,0.54,VWS V14.01,2013-03-10 04:35:00,
2013-03-09 23:40:00,30.9,30.1,30.33,ESE,121,0.0,0.0,97,0.00,,CLR,0.54,VWS V14.01,2013-03-10 04:40:00,
2013-03-09 23:45:00,30.9,30.1,30.33,ESE,121,0.0,0.0,97,0.00,,CLR,0.54,VWS V14.01,2013-03-10 04:45:00,
2013-03-09 23:50:00,30.9,30.4,30.33,ESE,121,0.0,0.0,98,0.00,,CLR,0.54,VWS V14.01,2013-03-10 04:50:00,
2013-03-09 23:55:00,31.1,30.6,30.33,ESE,120,0.0,0.0,98,0.00,,CLR,0.54,VWS V14.01,2013-03-10 04:55:00,